Time;durP1;ratioP1;P1;durP2;ratioP2;P2;SDS_P1;SDS_P2;PMS_P1;PMS_P2;Temp;Humidity;BMP_temperature;BMP_pressure;BME280_temperature;BME280_humidity;BME280_pressure;Samples;Min_cycle;Max_cycle;Signal;HPM_P1;HPM_P2
2023/06/15 00:00:40;;;;;;;;;;;17.90;77.60;;;;;;5035400;28;20368;-75
2023/06/15 00:03:07;;;;;;;;;;;17.90;78.60;;;;;;5035487;28;19911;-75
2023/06/15 00:05:32;;;;;;;;;;;17.90;78.60;;;;;;5034325;28;20261;-76
2023/06/15 00:08:01;;;;;;;;;;;17.90;79.00;;;;;;5035538;28;19909;-75
2023/06/15 00:10:26;;;;;;;;;;;17.80;79.20;;;;;;5018077;28;20276;-75
2023/06/15 00:12:51;;;;;;;;;;;17.80;79.50;;;;;;5034885;28;19905;-76
2023/06/15 00:15:17;;;;;;;;;;;17.90;80.60;;;;;;5035510;28;19912;-75
2023/06/15 00:17:43;;;;;;;;;;;17.60;80.20;;;;;;5035169;28;19905;-76
2023/06/15 00:20:10;;;;;;;;;;;17.70;80.60;;;;;;5034937;28;19987;-75
2023/06/15 00:22:40;;;;;;;;;;;17.70;81.00;;;;;;5035182;28;19905;-75
2023/06/15 00:25:06;;;;;;;;;;;17.70;81.70;;;;;;5035094;28;19912;-75
2023/06/15 00:27:33;;;;;;;;;;;17.70;82.00;;;;;;5034995;28;19905;-75
2023/06/15 00:29:58;;;;;;;;;;;18.30;82.60;;;;;;5035089;28;19909;-75
2023/06/15 00:32:24;;;;;;;;;;;17.50;82.60;;;;;;5034885;28;19909;-75
2023/06/15 00:34:49;;;;;;;;;;;17.40;83.40;;;;;;5017265;28;19912;-75
2023/06/15 00:37:15;;;;;;;;;;;17.40;83.70;;;;;;5034825;28;19963;-76
2023/06/15 00:39:41;;;;;;;;;;;17.30;83.90;;;;;;5034748;28;19915;-75
2023/06/15 00:42:06;;;;;;;;;;;17.30;84.60;;;;;;5034939;28;19928;-76
2023/06/15 00:44:32;;;;;;;;;;;17.20;85.40;;;;;;5034754;28;19948;-76
2023/06/15 00:46:57;;;;;;;;;;;17.20;86.20;;;;;;5034615;28;20404;-75
2023/06/15 00:49:23;;;;;;;;;;;17.10;86.50;;;;;;5016820;28;20000;-76
2023/06/15 00:51:49;;;;;;;;;;;17.10;87.20;;;;;;5034677;28;19905;-75
2023/06/15 00:54:18;;;;;;;;;;;17.10;87.90;;;;;;5016233;28;19912;-75
2023/06/15 00:56:43;;;;;;;;;;;17.00;88.90;;;;;;5033438;28;19905;-75
2023/06/15 00:59:09;;;;;;;;;;;17.00;89.30;;;;;;5034228;28;19962;-76
2023/06/15 01:01:34;;;;;;;;;;;17.00;90.10;;;;;;5034484;28;19905;-75
2023/06/15 01:04:01;;;;;;;;;;;16.90;90.30;;;;;;5034376;28;19912;-76
2023/06/15 01:06:31;;;;;;;;;;;16.80;90.70;;;;;;5034393;28;19905;-75
2023/06/15 01:08:58;;;;;;;;;;;16.80;91.20;;;;;;5034165;28;20368;-75
2023/06/15 01:11:24;;;;;;;;;;;16.80;91.50;;;;;;5034201;28;19912;-75
2023/06/15 01:13:53;;;;;;;;;;;16.70;91.90;;;;;;5034313;28;20364;-75
2023/06/15 01:16:32;;;;;;;;;;;16.70;92.30;;;;;;5034216;28;19909;-75
2023/06/15 01:18:58;;;;;;;;;;;16.70;92.60;;;;;;5034218;28;20411;-76
2023/06/15 01:21:27;;;;;;;;;;;16.70;93.00;;;;;;5034047;28;19952;-75
2023/06/15 01:24:03;;;;;;;;;;;16.60;93.40;;;;;;5015658;28;19909;-76
2023/06/15 01:26:28;;;;;;;;;;;16.60;94.00;;;;;;5034114;28;19916;-75
2023/06/15 01:28:55;;;;;;;;;;;16.60;94.50;;;;;;5033985;28;19905;-76
2023/06/15 01:31:21;;;;;;;;;;;16.60;94.80;;;;;;5016341;28;19928;-76
2023/06/15 01:33:47;;;;;;;;;;;16.50;95.20;;;;;;5034474;28;19905;-75
2023/06/15 01:36:13;;;;;;;;;;;16.80;95.80;;;;;;5016335;28;19955;-76
2023/06/15 01:38:39;;;;;;;;;;;16.50;96.10;;;;;;5016074;28;19971;-75
2023/06/15 01:41:06;;;;;;;;;;;16.50;96.70;;;;;;5015997;28;19909;-76
2023/06/15 01:43:32;;;;;;;;;;;16.50;97.10;;;;;;5033771;28;19912;-76
2023/06/15 01:45:57;;;;;;;;;;;16.60;97.70;;;;;;5033895;28;19905;-75
2023/06/15 01:48:25;;;;;;;;;;;16.40;98.20;;;;;;5033592;28;19911;-76
2023/06/15 01:50:50;;;;;;;;;;;16.40;98.40;;;;;;5033581;28;19905;-75
2023/06/15 01:53:16;;;;;;;;;;;16.50;99.00;;;;;;5016124;28;20006;-76
2023/06/15 01:55:42;;;;;;;;;;;16.50;99.80;;;;;;5033544;28;19999;-75
2023/06/15 01:58:08;;;;;;;;;;;16.80;99.90;;;;;;5033662;28;19967;-76
2023/06/15 02:00:33;;;;;;;;;;;16.50;99.90;;;;;;5033624;28;19909;-76
2023/06/15 02:02:58;;;;;;;;;;;16.40;99.90;;;;;;5033649;28;19905;-75
2023/06/15 02:05:24;;;;;;;;;;;16.40;99.90;;;;;;5033611;28;19916;-75
2023/06/15 02:07:50;;;;;;;;;;;16.50;99.90;;;;;;5015924;28;19905;-75
2023/06/15 02:10:16;;;;;;;;;;;16.40;99.90;;;;;;5033451;28;19905;-75
2023/06/15 02:12:41;;;;;;;;;;;16.60;99.90;;;;;;5033654;28;19912;-75
2023/06/15 02:15:07;;;;;;;;;;;16.40;99.90;;;;;;5015885;28;19905;-75
2023/06/15 02:17:38;;;;;;;;;;;16.30;99.90;;;;;;5015873;28;19905;-76
2023/06/15 02:20:07;;;;;;;;;;;17.20;99.90;;;;;;5033272;28;19913;-75
2023/06/15 02:22:33;;;;;;;;;;;16.30;99.90;;;;;;5033551;28;19912;-76
2023/06/15 02:24:58;;;;;;;;;;;16.20;99.90;;;;;;5033821;28;19909;-76
2023/06/15 02:27:24;;;;;;;;;;;16.10;99.90;;;;;;5033338;28;19994;-75
2023/06/15 02:29:49;;;;;;;;;;;16.20;99.90;;;;;;5033324;28;20004;-75
2023/06/15 02:32:37;;;;;;;;;;;16.10;99.90;;;;;;5033197;28;19905;-75
2023/06/15 02:35:05;;;;;;;;;;;16.10;99.90;;;;;;5034865;28;20289;-75
2023/06/15 02:37:30;;;;;;;;;;;16.00;99.90;;;;;;5037123;28;20360;-75
2023/06/15 02:39:56;;;;;;;;;;;15.90;99.90;;;;;;5035579;28;19916;-75
2023/06/15 02:42:21;;;;;;;;;;;16.00;99.90;;;;;;5019157;28;19951;-75
2023/06/15 02:44:46;;;;;;;;;;;15.90;99.90;;;;;;5036998;28;19991;-75
2023/06/15 02:47:12;;;;;;;;;;;15.90;99.90;;;;;;5037125;28;20439;-75
2023/06/15 02:49:37;;;;;;;;;;;15.80;99.90;;;;;;5036869;28;20265;-75
2023/06/15 02:52:03;;;;;;;;;;;15.70;99.90;;;;;;5019119;28;19995;-75
2023/06/15 02:54:29;;;;;;;;;;;15.70;99.90;;;;;;5018914;28;20303;-75
2023/06/15 02:56:55;;;;;;;;;;;15.60;99.90;;;;;;5036911;28;19905;-75
2023/06/15 02:59:25;;;;;;;;;;;15.40;99.90;;;;;;5037110;28;20007;-75
2023/06/15 03:01:53;;;;;;;;;;;15.50;99.90;;;;;;5036711;28;19905;-75
2023/06/15 03:04:21;;;;;;;;;;;15.40;99.90;;;;;;5037221;28;19909;-75
2023/06/15 03:06:49;;;;;;;;;;;15.30;99.90;;;;;;5018934;28;19944;-75
2023/06/15 03:09:18;;;;;;;;;;;15.20;99.90;;;;;;5036582;28;20000;-75
2023/06/15 03:11:44;;;;;;;;;;;15.10;99.90;;;;;;5018861;28;19905;-75
2023/06/15 03:14:13;;;;;;;;;;;15.10;99.90;;;;;;5037192;28;20379;-75
2023/06/15 03:16:39;;;;;;;;;;;15.00;99.90;;;;;;5018721;28;19999;-75
2023/06/15 03:19:05;;;;;;;;;;;14.90;99.90;;;;;;5036330;28;19905;-75
2023/06/15 03:21:30;;;;;;;;;;;14.90;99.90;;;;;;5036354;28;19935;-75
2023/06/15 03:23:56;;;;;;;;;;;14.90;99.90;;;;;;5036300;28;19905;-75
2023/06/15 03:26:23;;;;;;;;;;;14.80;99.90;;;;;;5036288;28;19905;-75
2023/06/15 03:28:49;;;;;;;;;;;14.70;99.90;;;;;;5036093;28;19909;-75
2023/06/15 03:31:18;;;;;;;;;;;14.70;99.90;;;;;;5036374;28;20325;-75
2023/06/15 03:33:45;;;;;;;;;;;14.70;99.90;;;;;;5036191;28;20368;-76
2023/06/15 03:36:13;;;;;;;;;;;14.60;99.90;;;;;;5036101;28;20387;-75
2023/06/15 03:38:42;;;;;;;;;;;14.60;99.90;;;;;;5036553;28;19909;-76
2023/06/15 03:41:07;;;;;;;;;;;14.60;99.90;;;;;;5018351;28;19909;-75
2023/06/15 03:43:34;;;;;;;;;;;14.60;99.90;;;;;;5035976;28;20383;-75
2023/06/15 03:45:59;;;;;;;;;;;14.60;99.90;;;;;;5035208;28;19940;-75
2023/06/15 03:48:25;;;;;;;;;;;14.60;99.90;;;;;;5036302;28;19905;-75
2023/06/15 03:50:50;;;;;;;;;;;14.60;99.90;;;;;;5036146;28;19905;-75
2023/06/15 03:53:16;;;;;;;;;;;14.60;99.90;;;;;;5036049;28;19912;-75
2023/06/15 03:55:41;;;;;;;;;;;14.60;99.90;;;;;;5036024;28;19905;-75
2023/06/15 03:58:06;;;;;;;;;;;14.60;99.90;;;;;;5017920;28;20307;-75
2023/06/15 04:00:32;;;;;;;;;;;14.60;99.90;;;;;;5035576;28;20004;-76
2023/06/15 04:02:57;;;;;;;;;;;14.70;99.90;;;;;;5035679;28;19916;-75
2023/06/15 04:05:23;;;;;;;;;;;14.70;99.90;;;;;;5017737;28;19912;-75
2023/06/15 04:07:48;;;;;;;;;;;14.70;99.90;;;;;;5035511;28;19944;-75
2023/06/15 04:10:14;;;;;;;;;;;14.70;99.90;;;;;;5035424;28;19912;-75
2023/06/15 04:12:40;;;;;;;;;;;14.70;99.90;;;;;;5035266;28;19905;-75
2023/06/15 04:15:06;;;;;;;;;;;14.80;99.90;;;;;;5017485;28;20295;-75
2023/06/15 04:17:31;;;;;;;;;;;14.80;99.90;;;;;;5035693;28;19909;-75
2023/06/15 04:19:56;;;;;;;;;;;14.80;99.90;;;;;;5017425;28;19982;-78
2023/06/15 04:22:22;;;;;;;;;;;15.90;99.90;;;;;;5020123;28;19912;-79
2023/06/15 04:24:47;;;;;;;;;;;15.00;99.90;;;;;;5019503;28;19915;-79
2023/06/15 04:27:14;;;;;;;;;;;15.00;99.90;;;;;;5038209;28;19905;-79
2023/06/15 04:29:45;;;;;;;;;;;15.10;99.90;;;;;;5020196;28;19963;-78
2023/06/15 04:32:14;;;;;;;;;;;15.30;99.90;;;;;;5037433;28;19905;-78
2023/06/15 04:34:45;;;;;;;;;;;15.30;99.90;;;;;;5037754;28;19909;-78
2023/06/15 04:37:14;;;;;;;;;;;15.40;99.90;;;;;;5037734;28;20372;-79
2023/06/15 04:39:39;;;;;;;;;;;15.50;99.90;;;;;;5020227;28;19916;-79
2023/06/15 04:42:05;;;;;;;;;;;15.60;99.90;;;;;;5020003;28;20292;-79
2023/06/15 04:44:30;;;;;;;;;;;15.70;99.90;;;;;;5037113;28;19905;-78
2023/06/15 04:46:56;;;;;;;;;;;15.90;99.90;;;;;;5037914;28;19911;-79
2023/06/15 04:49:21;;;;;;;;;;;16.00;99.90;;;;;;5037522;28;19905;-79
2023/06/15 04:51:48;;;;;;;;;;;16.10;99.90;;;;;;5037803;28;19905;-78
2023/06/15 04:54:13;;;;;;;;;;;16.30;99.90;;;;;;5037715;28;19912;-78
2023/06/15 04:56:39;;;;;;;;;;;16.70;99.90;;;;;;5037524;28;19905;-79
2023/06/15 04:59:04;;;;;;;;;;;16.50;99.90;;;;;;5037536;28;19928;-79
2023/06/15 05:01:30;;;;;;;;;;;16.90;99.90;;;;;;5037348;28;19905;-79
2023/06/15 05:03:56;;;;;;;;;;;16.70;99.90;;;;;;5036775;28;19905;-77
2023/06/15 05:06:21;;;;;;;;;;;16.90;99.90;;;;;;5035833;28;19948;-78
2023/06/15 05:08:47;;;;;;;;;;;17.10;99.90;;;;;;5035832;28;20364;-78
2023/06/15 05:11:12;;;;;;;;;;;17.10;99.90;;;;;;5018240;28;19905;-78
2023/06/15 05:13:38;;;;;;;;;;;17.30;99.90;;;;;;5018959;28;19909;-79
2023/06/15 05:16:03;;;;;;;;;;;17.50;99.90;;;;;;5018032;28;19905;-78
2023/06/15 05:18:29;;;;;;;;;;;17.60;99.90;;;;;;5035683;28;19905;-78
2023/06/15 05:20:54;;;;;;;;;;;17.70;99.90;;;;;;5016924;28;19913;-78
2023/06/15 05:23:19;;;;;;;;;;;17.90;99.90;;;;;;5034726;28;19904;-77
2023/06/15 05:25:45;;;;;;;;;;;18.20;99.90;;;;;;5034797;28;19996;-78
2023/06/15 05:28:11;;;;;;;;;;;18.30;99.90;;;;;;5035027;28;19916;-77
2023/06/15 05:30:36;;;;;;;;;;;18.40;99.90;;;;;;5033655;28;19949;-77
2023/06/15 05:33:02;;;;;;;;;;;18.60;99.90;;;;;;5017240;28;19958;-77
2023/06/15 05:35:28;;;;;;;;;;;18.70;99.90;;;;;;5034852;28;19912;-77
2023/06/15 05:37:53;;;;;;;;;;;18.80;99.90;;;;;;5034520;28;19909;-77
2023/06/15 05:40:19;;;;;;;;;;;19.00;99.90;;;;;;5017469;28;19962;-77
2023/06/15 05:42:48;;;;;;;;;;;19.00;99.90;;;;;;5017021;28;19905;-77
2023/06/15 05:45:13;;;;;;;;;;;19.20;99.90;;;;;;5016371;28;20288;-77
2023/06/15 05:47:39;;;;;;;;;;;19.30;99.90;;;;;;5033968;28;19905;-77
2023/06/15 05:50:05;;;;;;;;;;;19.50;99.90;;;;;;5015394;28;19912;-77
2023/06/15 05:52:30;;;;;;;;;;;19.70;99.90;;;;;;5034931;28;20000;-78
2023/06/15 05:54:56;;;;;;;;;;;19.80;99.90;;;;;;5034795;28;19928;-78
2023/06/15 05:57:21;;;;;;;;;;;19.80;99.90;;;;;;5035027;28;20368;-78
2023/06/15 05:59:47;;;;;;;;;;;19.80;99.90;;;;;;5034235;28;19952;-75
2023/06/15 06:02:13;;;;;;;;;;;19.80;99.90;;;;;;5015156;28;20383;-75
2023/06/15 06:04:38;;;;;;;;;;;19.90;99.90;;;;;;5033519;28;19909;-75
2023/06/15 06:07:05;;;;;;;;;;;20.00;99.90;;;;;;5033686;28;19905;-75
2023/06/15 06:09:34;;;;;;;;;;;20.00;99.90;;;;;;5034059;28;19909;-75
2023/06/15 06:12:03;;;;;;;;;;;20.10;99.90;;;;;;5037393;28;19905;-75
2023/06/15 06:14:28;;;;;;;;;;;20.10;99.90;;;;;;5036879;28;19994;-75
2023/06/15 06:16:54;;;;;;;;;;;20.20;99.90;;;;;;5036444;28;19908;-76
2023/06/15 06:19:20;;;;;;;;;;;20.30;99.90;;;;;;5019525;28;19909;-75
2023/06/15 06:21:46;;;;;;;;;;;20.30;99.90;;;;;;5019789;28;19948;-75
2023/06/15 06:24:11;;;;;;;;;;;20.80;99.90;;;;;;5038090;28;19905;-76
2023/06/15 06:26:37;;;;;;;;;;;20.50;99.90;;;;;;5037390;28;19905;-75
2023/06/15 06:29:03;;;;;;;;;;;20.60;99.90;;;;;;5037295;28;20004;-75
2023/06/15 06:31:28;;;;;;;;;;;20.60;99.90;;;;;;5037232;28;19948;-75
2023/06/15 06:33:54;;;;;;;;;;;20.70;99.90;;;;;;5037434;28;19944;-76
2023/06/15 06:36:19;;;;;;;;;;;20.90;99.90;;;;;;5037294;28;19905;-75
2023/06/15 06:38:45;;;;;;;;;;;20.90;99.90;;;;;;5019384;28;19905;-76
2023/06/15 06:41:10;;;;;;;;;;;21.00;99.90;;;;;;5019307;28;19959;-76
2023/06/15 06:43:36;;;;;;;;;;;21.20;99.90;;;;;;5037087;28;20356;-75
2023/06/15 06:46:01;;;;;;;;;;;21.50;99.90;;;;;;5037151;28;19906;-75
2023/06/15 06:48:27;;;;;;;;;;;21.40;99.30;;;;;;5019169;28;19905;-76
2023/06/15 06:50:53;;;;;;;;;;;21.50;99.00;;;;;;5019135;28;20356;-75
2023/06/15 06:53:18;;;;;;;;;;;21.60;98.60;;;;;;5037357;28;19909;-75
2023/06/15 06:55:45;;;;;;;;;;;21.60;98.60;;;;;;5036941;28;19905;-75
2023/06/15 06:58:10;;;;;;;;;;;21.70;98.30;;;;;;5035656;28;19905;-75
2023/06/15 07:00:36;;;;;;;;;;;21.80;98.70;;;;;;5035741;28;19995;-75
2023/06/15 07:03:04;;;;;;;;;;;21.90;98.30;;;;;;5036721;28;20427;-75
2023/06/15 07:05:30;;;;;;;;;;;21.90;98.20;;;;;;5037259;28;19905;-75
2023/06/15 07:07:56;;;;;;;;;;;22.00;97.70;;;;;;5036676;28;19983;-75
2023/06/15 07:10:21;;;;;;;;;;;22.00;97.00;;;;;;5018832;28;19912;-75
2023/06/15 07:12:47;;;;;;;;;;;22.50;97.00;;;;;;5018871;28;20283;-75
2023/06/15 07:15:13;;;;;;;;;;;22.00;96.50;;;;;;5036504;28;19952;-75
2023/06/15 07:17:38;;;;;;;;;;;22.20;97.00;;;;;;5018759;28;19909;-75
2023/06/15 07:20:04;;;;;;;;;;;22.40;96.90;;;;;;5036416;28;19957;-75
2023/06/15 07:22:30;;;;;;;;;;;22.70;96.30;;;;;;5035140;28;20001;-75
2023/06/15 07:24:55;;;;;;;;;;;22.70;94.60;;;;;;5036369;28;19920;-75
2023/06/15 07:27:21;;;;;;;;;;;22.80;94.50;;;;;;5036363;28;20357;-75
2023/06/15 07:29:47;;;;;;;;;;;22.90;94.90;;;;;;5036156;28;19905;-75
2023/06/15 07:32:13;;;;;;;;;;;23.10;94.10;;;;;;5036185;28;19905;-75
2023/06/15 07:34:38;;;;;;;;;;;23.20;93.60;;;;;;5036251;28;19992;-75
2023/06/15 07:37:04;;;;;;;;;;;23.30;93.40;;;;;;5036168;28;20007;-75
2023/06/15 07:39:29;;;;;;;;;;;23.50;93.00;;;;;;5019108;28;19963;-75
2023/06/15 07:41:55;;;;;;;;;;;23.60;93.20;;;;;;5036123;28;19955;-75
2023/06/15 07:44:21;;;;;;;;;;;23.70;93.00;;;;;;5018284;28;19927;-75
2023/06/15 07:46:46;;;;;;;;;;;23.90;92.40;;;;;;5036121;28;19996;-75
2023/06/15 07:49:12;;;;;;;;;;;23.90;92.60;;;;;;5036168;28;19906;-76
2023/06/15 07:51:37;;;;;;;;;;;24.00;92.00;;;;;;5035877;28;19912;-75
2023/06/15 07:54:03;;;;;;;;;;;24.00;91.40;;;;;;5035885;28;20361;-75
2023/06/15 07:56:28;;;;;;;;;;;24.00;91.20;;;;;;5018156;28;19955;-75
2023/06/15 07:58:54;;;;;;;;;;;24.10;91.20;;;;;;5035678;28;19905;-75
2023/06/15 08:01:19;;;;;;;;;;;24.20;91.30;;;;;;5017945;28;19909;-75
2023/06/15 08:03:45;;;;;;;;;;;24.30;90.30;;;;;;5035684;28;20043;-75
2023/06/15 08:06:11;;;;;;;;;;;24.40;90.00;;;;;;5017791;28;19955;-75
2023/06/15 08:08:36;;;;;;;;;;;24.60;90.60;;;;;;5035638;28;19912;-75
2023/06/15 08:11:02;;;;;;;;;;;24.70;90.40;;;;;;5034221;28;19905;-75
2023/06/15 08:13:27;;;;;;;;;;;24.80;89.20;;;;;;5035614;28;19905;-75
2023/06/15 08:15:53;;;;;;;;;;;24.90;88.20;;;;;;5017815;28;19912;-75
2023/06/15 08:18:19;;;;;;;;;;;24.90;87.40;;;;;;5035428;28;19959;-75
2023/06/15 08:20:44;;;;;;;;;;;24.90;86.50;;;;;;5035017;28;19920;-75
2023/06/15 08:23:10;;;;;;;;;;;25.00;85.10;;;;;;5035480;28;19948;-75
2023/06/15 08:25:35;;;;;;;;;;;25.10;86.10;;;;;;5035108;28;19909;-75
2023/06/15 08:28:01;;;;;;;;;;;25.30;84.70;;;;;;5017542;28;19909;-75
2023/06/15 08:30:26;;;;;;;;;;;25.30;78.90;;;;;;5035161;28;19909;-76
2023/06/15 08:32:52;;;;;;;;;;;25.30;80.10;;;;;;5016942;28;19941;-76
2023/06/15 08:35:17;;;;;;;;;;;25.40;81.40;;;;;;5035118;28;20433;-75
2023/06/15 08:37:43;;;;;;;;;;;25.60;79.70;;;;;;5033800;28;19905;-75
2023/06/15 08:40:09;;;;;;;;;;;25.70;76.50;;;;;;5034799;28;19913;-75
2023/06/15 08:42:34;;;;;;;;;;;25.80;76.40;;;;;;5034858;28;19911;-75
2023/06/15 08:45:03;;;;;;;;;;;25.80;72.50;;;;;;5034867;28;19912;-75
2023/06/15 08:47:29;;;;;;;;;;;26.00;74.70;;;;;;5034851;28;20294;-75
2023/06/15 08:49:55;;;;;;;;;;;26.10;74.60;;;;;;5034919;28;19905;-75
2023/06/15 08:52:23;;;;;;;;;;;26.20;74.30;;;;;;5033454;28;20099;-75
2023/06/15 08:54:51;;;;;;;;;;;26.30;73.50;;;;;;5034807;28;19916;-75
2023/06/15 08:57:17;;;;;;;;;;;26.30;72.00;;;;;;5035005;28;20383;-75
2023/06/15 08:59:42;;;;;;;;;;;26.40;71.80;;;;;;5016801;28;19909;-75
2023/06/15 09:02:13;;;;;;;;;;;26.40;71.70;;;;;;5034568;28;20008;-75
2023/06/15 09:04:38;;;;;;;;;;;26.50;70.70;;;;;;5034934;28;19916;-78
2023/06/15 09:07:05;;;;;;;;;;;26.60;70.40;;;;;;5036772;28;19992;-77
2023/06/15 09:09:30;;;;;;;;;;;26.60;69.10;;;;;;5018762;28;19988;-77
2023/06/15 09:11:56;;;;;;;;;;;26.70;70.20;;;;;;5035104;28;20391;-77
2023/06/15 09:14:22;;;;;;;;;;;26.80;69.80;;;;;;5018686;28;19905;-77
2023/06/15 09:16:48;;;;;;;;;;;26.90;69.70;;;;;;5018680;28;19905;-77
2023/06/15 09:19:16;;;;;;;;;;;27.00;67.90;;;;;;5036194;28;19905;-78
2023/06/15 09:21:42;;;;;;;;;;;27.10;68.60;;;;;;5037123;28;19955;-77
2023/06/15 09:24:08;;;;;;;;;;;27.00;71.00;;;;;;5037223;28;19911;-77
2023/06/15 09:26:33;;;;;;;;;;;27.00;69.50;;;;;;5018766;28;19995;-78
2023/06/15 09:29:02;;;;;;;;;;;27.10;69.80;;;;;;5018837;28;19905;-77
2023/06/15 09:31:32;;;;;;;;;;;27.10;68.80;;;;;;5036566;28;20288;-78
2023/06/15 09:34:08;;;;;;;;;;;27.10;69.80;;;;;;5018798;28;20261;-78
2023/06/15 09:36:49;;;;;;;;;;;27.20;67.30;;;;;;5018745;28;20314;-78
2023/06/15 09:39:15;;;;;;;;;;;27.30;67.50;;;;;;5036378;28;19905;-77
2023/06/15 09:41:53;;;;;;;;;;;27.40;66.30;;;;;;5036095;28;20372;-77
2023/06/15 09:44:21;;;;;;;;;;;27.50;65.50;;;;;;5035357;28;19935;-78
2023/06/15 09:46:51;;;;;;;;;;;27.60;64.60;;;;;;5035625;28;19905;-78
2023/06/15 09:49:21;;;;;;;;;;;27.60;64.50;;;;;;5017882;28;19905;-77
2023/06/15 09:51:48;;;;;;;;;;;27.80;64.20;;;;;;5018195;28;19912;-78
2023/06/15 09:54:14;;;;;;;;;;;27.90;61.90;;;;;;5035896;28;19905;-77
2023/06/15 09:56:40;;;;;;;;;;;27.90;61.30;;;;;;5035610;28;19905;-77
2023/06/15 09:59:06;;;;;;;;;;;27.90;62.30;;;;;;5017842;28;20394;-77
2023/06/15 10:01:35;;;;;;;;;;;28.00;61.50;;;;;;5036145;28;19905;-77
2023/06/15 10:04:02;;;;;;;;;;;28.00;59.40;;;;;;5035126;28;20380;-77
2023/06/15 10:06:30;;;;;;;;;;;28.10;60.70;;;;;;5036186;28;19905;-77
2023/06/15 10:08:57;;;;;;;;;;;28.00;59.60;;;;;;5035374;28;19979;-77
2023/06/15 10:11:23;;;;;;;;;;;28.20;61.00;;;;;;5036106;28;19996;-78
2023/06/15 10:13:51;;;;;;;;;;;28.20;58.30;;;;;;5017932;28;20288;-78
2023/06/15 10:16:17;;;;;;;;;;;28.50;59.10;;;;;;5035426;28;19905;-77
2023/06/15 10:18:44;;;;;;;;;;;29.10;55.50;;;;;;5035439;28;19905;-77
2023/06/15 10:21:14;;;;;;;;;;;29.10;56.10;;;;;;5017612;28;20368;-78
2023/06/15 10:23:40;;;;;;;;;;;29.20;54.00;;;;;;5036037;28;20273;-77
2023/06/15 10:26:06;;;;;;;;;;;29.30;55.40;;;;;;5036128;28;20427;-77
2023/06/15 10:28:33;;;;;;;;;;;29.50;54.20;;;;;;5036209;28;19948;-78
2023/06/15 10:31:07;;;;;;;;;;;29.50;52.40;;;;;;5035803;28;20427;-77
2023/06/15 10:33:51;;;;;;;;;;;29.50;51.20;;;;;;5035870;28;19928;-78
2023/06/15 10:36:17;;;;;;;;;;;29.50;51.80;;;;;;5035888;28;19916;-78
2023/06/15 10:38:47;;;;;;;;;;;29.80;53.90;;;;;;5017896;28;19905;-77
2023/06/15 10:41:13;;;;;;;;;;;30.20;53.10;;;;;;5035861;28;19909;-78
2023/06/15 10:43:38;;;;;;;;;;;30.70;51.80;;;;;;5033982;28;19916;-78
2023/06/15 10:46:06;;;;;;;;;;;30.90;50.30;;;;;;5035556;28;19912;-77
2023/06/15 10:48:37;;;;;;;;;;;31.10;50.20;;;;;;5017572;28;19905;-77
2023/06/15 10:51:03;;;;;;;;;;;31.10;47.40;;;;;;5034905;28;20404;-78
2023/06/15 10:53:34;;;;;;;;;;;31.00;48.40;;;;;;5035472;28;19992;-77
2023/06/15 10:55:59;;;;;;;;;;;31.10;48.10;;;;;;5037613;28;19905;-78
2023/06/15 10:58:26;;;;;;;;;;;31.20;47.40;;;;;;5039497;28;19912;-78
2023/06/15 11:01:09;;;;;;;;;;;31.20;46.40;;;;;;5021122;28;19935;-78
2023/06/15 11:03:35;;;;;;;;;;;31.50;47.10;;;;;;5021625;28;19905;-78
2023/06/15 11:06:02;;;;;;;;;;;31.40;45.00;;;;;;5039146;28;19912;-78
2023/06/15 11:08:32;;;;;;;;;;;31.50;46.60;;;;;;5039119;28;19955;-78
2023/06/15 11:10:58;;;;;;;;;;;31.70;46.80;;;;;;5038721;28;20400;-77
2023/06/15 11:13:25;;;;;;;;;;;32.00;46.20;;;;;;5038783;28;19916;-78
2023/06/15 11:16:04;;;;;;;;;;;32.20;46.90;;;;;;5038897;28;19943;-78
2023/06/15 11:18:31;;;;;;;;;;;32.10;43.90;;;;;;5039142;28;19905;-78
2023/06/15 11:21:01;;;;;;;;;;;31.80;45.30;;;;;;5038802;28;20012;-78
2023/06/15 11:23:33;;;;;;;;;;;32.00;47.00;;;;;;5021542;28;19913;-78
2023/06/15 11:26:01;;;;;;;;;;;32.30;46.80;;;;;;5039776;28;19913;-77
2023/06/15 11:28:31;;;;;;;;;;;32.50;44.90;;;;;;5039187;28;19909;-77
2023/06/15 11:31:00;;;;;;;;;;;32.90;45.80;;;;;;5038441;28;19905;-78
2023/06/15 11:33:27;;;;;;;;;;;33.40;43.90;;;;;;5038709;28;19905;-77
2023/06/15 11:35:53;;;;;;;;;;;33.30;42.70;;;;;;5020728;28;19909;-78
2023/06/15 11:38:22;;;;;;;;;;;32.60;43.40;;;;;;5038538;28;19962;-77
2023/06/15 11:40:48;;;;;;;;;;;32.10;45.20;;;;;;5037721;28;20321;-78
2023/06/15 11:43:14;;;;;;;;;;;31.40;43.90;;;;;;5038687;28;19905;-77
2023/06/15 11:45:44;;;;;;;;;;;30.50;44.30;;;;;;5020863;28;19905;-77
2023/06/15 11:48:13;;;;;;;;;;;30.00;46.10;;;;;;5038857;28;19959;-78
2023/06/15 11:50:42;;;;;;;;;;;30.00;45.30;;;;;;5037795;28;19966;-78
2023/06/15 11:53:13;;;;;;;;;;;29.80;45.20;;;;;;5038182;28;19905;-78
2023/06/15 11:55:45;;;;;;;;;;;29.50;45.30;;;;;;5038117;28;19905;-78
2023/06/15 11:58:11;;;;;;;;;;;29.10;47.20;;;;;;5037907;28;20365;-78
2023/06/15 12:00:36;;;;;;;;;;;28.80;47.50;;;;;;5038039;28;19909;-78
2023/06/15 12:03:09;;;;;;;;;;;28.60;48.50;;;;;;5038214;28;19933;-77
2023/06/15 12:05:35;;;;;;;;;;;28.50;48.00;;;;;;5037819;28;19912;-77
2023/06/15 12:08:01;;;;;;;;;;;28.50;48.80;;;;;;5019432;28;19905;-77
2023/06/15 12:10:27;;;;;;;;;;;29.10;49.10;;;;;;5037242;28;19912;-78
2023/06/15 12:12:52;;;;;;;;;;;29.90;48.40;;;;;;5037515;28;19948;-77
2023/06/15 12:15:20;;;;;;;;;;;30.70;48.00;;;;;;5037858;28;19915;-78
2023/06/15 12:17:46;;;;;;;;;;;31.60;45.60;;;;;;5037642;28;19916;-78
2023/06/15 12:20:14;;;;;;;;;;;31.50;43.10;;;;;;5037162;28;20384;-77
2023/06/15 12:22:44;;;;;;;;;;;31.20;41.90;;;;;;5020919;28;19909;-78
2023/06/15 12:25:10;;;;;;;;;;;30.60;43.30;;;;;;5019864;28;19935;-77
2023/06/15 12:27:42;;;;;;;;;;;30.10;43.80;;;;;;5036924;28;19991;-77
2023/06/15 12:30:12;;;;;;;;;;;30.30;44.40;;;;;;5037525;28;19948;-77
2023/06/15 12:32:55;;;;;;;;;;;30.80;45.30;;;;;;5019892;28;20039;-77
2023/06/15 12:35:37;;;;;;;;;;;31.70;42.70;;;;;;5037750;28;19905;-78
2023/06/15 12:38:09;;;;;;;;;;;32.70;44.00;;;;;;5038027;28;19992;-78
2023/06/15 12:40:41;;;;;;;;;;;32.70;42.90;;;;;;5019164;28;20265;-77
2023/06/15 12:43:07;;;;;;;;;;;32.40;40.80;;;;;;5019110;28;19905;-78
2023/06/15 12:45:32;;;;;;;;;;;31.70;41.80;;;;;;5019074;28;19912;-78
2023/06/15 12:47:59;;;;;;;;;;;31.30;42.60;;;;;;5018933;28;19905;-77
2023/06/15 12:50:24;;;;;;;;;;;31.00;46.50;;;;;;5018558;28;19966;-77
2023/06/15 12:52:52;;;;;;;;;;;30.70;45.00;;;;;;5037262;28;20360;-77
2023/06/15 12:55:18;;;;;;;;;;;30.30;46.80;;;;;;5036982;28;19955;-78
2023/06/15 12:57:44;;;;;;;;;;;29.70;46.10;;;;;;5018967;28;20308;-78
2023/06/15 13:00:10;;;;;;;;;;;29.60;48.20;;;;;;5036206;28;20351;-77
2023/06/15 13:02:35;;;;;;;;;;;29.90;46.60;;;;;;5036758;28;19909;-78
2023/06/15 13:05:04;;;;;;;;;;;30.70;47.60;;;;;;5036902;28;19999;-78
2023/06/15 13:07:31;;;;;;;;;;;30.90;46.50;;;;;;5036317;28;19954;-78
2023/06/15 13:09:57;;;;;;;;;;;31.70;44.80;;;;;;5036959;28;20321;-77
2023/06/15 13:12:22;;;;;;;;;;;32.50;43.10;;;;;;5018655;28;19912;-78
2023/06/15 13:14:48;;;;;;;;;;;32.90;42.60;;;;;;5036991;28;20006;-77
2023/06/15 13:17:13;;;;;;;;;;;33.30;42.30;;;;;;5036781;28;19972;-78
2023/06/15 13:19:39;;;;;;;;;;;33.30;42.80;;;;;;5036167;28;19913;-77
2023/06/15 13:22:05;;;;;;;;;;;33.30;41.70;;;;;;5036745;28;19955;-78
2023/06/15 13:24:30;;;;;;;;;;;33.30;41.80;;;;;;5036961;28;19945;-77
2023/06/15 13:26:57;;;;;;;;;;;33.50;42.00;;;;;;5019359;28;19905;-77
2023/06/15 13:29:23;;;;;;;;;;;33.40;42.70;;;;;;5019070;28;19912;-77
2023/06/15 13:31:49;;;;;;;;;;;33.10;43.10;;;;;;5037028;28;19909;-78
2023/06/15 13:34:14;;;;;;;;;;;32.70;42.60;;;;;;5036714;28;19971;-77
2023/06/15 13:36:41;;;;;;;;;;;32.40;42.70;;;;;;5037264;28;20264;-77
2023/06/15 13:39:07;;;;;;;;;;;32.60;43.10;;;;;;5036288;28;19928;-78
2023/06/15 13:41:32;;;;;;;;;;;33.00;43.30;;;;;;5018250;28;19912;-77
2023/06/15 13:43:59;;;;;;;;;;;33.40;42.70;;;;;;5018829;28;19905;-77
2023/06/15 13:46:24;;;;;;;;;;;33.90;42.30;;;;;;5036348;28;19993;-77
2023/06/15 13:48:50;;;;;;;;;;;34.30;40.60;;;;;;5018389;28;19945;-77
2023/06/15 13:51:15;;;;;;;;;;;34.40;39.90;;;;;;5036461;28;19905;-77
2023/06/15 13:53:41;;;;;;;;;;;34.60;40.10;;;;;;5035919;28;19905;-77
2023/06/15 13:56:06;;;;;;;;;;;34.50;39.00;;;;;;5035286;28;19954;-78
2023/06/15 13:58:32;;;;;;;;;;;34.50;39.30;;;;;;5036199;28;19912;-78
2023/06/15 14:00:57;;;;;;;;;;;34.50;40.50;;;;;;5033897;28;19916;-77
2023/06/15 14:03:23;;;;;;;;;;;34.70;39.10;;;;;;5035118;28;19912;-78
2023/06/15 14:05:48;;;;;;;;;;;34.20;39.20;;;;;;5017391;28;19909;-77
2023/06/15 14:08:14;;;;;;;;;;;33.50;39.90;;;;;;5035081;28;20346;-77
2023/06/15 14:10:39;;;;;;;;;;;33.00;39.50;;;;;;5017070;28;19909;-77
2023/06/15 14:13:05;;;;;;;;;;;32.70;41.10;;;;;;5035268;28;20269;-78